Main page
METAR-TAF:

METAR-TAF

Airports :

Lemnos International Airport

Lemnos, Greece

latitude: 39-55N, longitude: 025-14E, elevation: 5 m

Current weather observation

The report was made 28 minutes ago, at 04:20 UTC
Wind 7 kt from the South/Southwest
Temperature 14°C
Humidity 94%
Pressure 1017 hPa
Visibility 10 km or more
Few clouds at a height of 2000 ft

METAR: LGLM 060420Z 20007KT 9999 FEW020 14/13 Q1017

Time: 06:48 (04:48 UTC)

Forecast

The report was made 2 hours and 48 minutes ago, at 02:00 UTC
Forecast valid from 06 at 03 UTC to 06 at 12 UTC
Wind 12 kt from the Southwest
Visibility 10 km or more
Few clouds at a height of 2000 ft
Scattered clouds at a height of 3400 ft

TAF: LGLM 060200Z 0603/0612 22012KT 9999 FEW020 SCT034

Weather observations and forecasts of more than 4000 airports (METAR and TAF reports).

The available stations are represented by yellow and red dots on the map.

Hover mouse over dot to see the name of the station.

Then click to see weather observations and forecasts.

To change the map : click on the green buttons with a black cross to zoom in, on the green button with a dash to zoom out, or on the green arrows for adjacent maps.


METAR-TAF: